createdAt,value
2022-12-27T00:00:08.391Z,1.20
2022-12-27T00:02:38.379Z,0.90
2022-12-27T00:05:07.750Z,1.30
2022-12-27T00:07:34.834Z,0.97
2022-12-27T00:10:02.167Z,1.03
2022-12-27T00:12:29.119Z,1.10
2022-12-27T00:14:56.112Z,0.80
2022-12-27T00:17:23.134Z,1.00
2022-12-27T00:19:50.018Z,0.90
2022-12-27T00:22:16.912Z,1.40
2022-12-27T00:24:43.874Z,1.17
2022-12-27T00:27:11.818Z,1.00
2022-12-27T00:29:38.870Z,1.20
2022-12-27T00:32:05.951Z,1.07
2022-12-27T00:34:32.856Z,1.00
2022-12-27T00:36:59.797Z,0.97
2022-12-27T00:39:27.895Z,0.90
2022-12-27T00:41:54.763Z,1.07
2022-12-27T00:44:21.697Z,1.20
2022-12-27T00:46:48.632Z,1.37
2022-12-27T00:49:15.566Z,1.10
2022-12-27T00:51:42.522Z,1.00
2022-12-27T00:54:09.577Z,1.60
2022-12-27T00:56:36.496Z,1.17
2022-12-27T00:59:05.556Z,0.90
2022-12-27T01:01:36.472Z,1.27
2022-12-27T01:04:05.362Z,1.27
2022-12-27T01:06:34.858Z,0.90
2022-12-27T01:09:02.884Z,1.10
2022-12-27T01:11:30.586Z,0.93
2022-12-27T01:14:00.391Z,0.90
2022-12-27T01:16:30.251Z,0.97
2022-12-27T01:18:59.614Z,1.10
2022-12-27T01:21:30.567Z,1.03
2022-12-27T01:23:58.305Z,0.90
2022-12-27T01:26:26.037Z,1.10
2022-12-27T01:28:54.074Z,0.90
2022-12-27T01:31:26.162Z,1.00
2022-12-27T01:33:58.876Z,1.00
2022-12-27T01:36:28.285Z,1.17
2022-12-27T01:38:55.398Z,0.90
2022-12-27T01:41:46.788Z,0.97
2022-12-27T01:44:38.727Z,1.40
2022-12-27T01:47:17.548Z,1.00
2022-12-27T01:50:15.205Z,1.13
2022-12-27T01:53:17.802Z,1.10
2022-12-27T01:55:54.703Z,1.00
2022-12-27T01:58:39.460Z,1.23
2022-12-27T02:01:14.870Z,1.07
2022-12-27T02:03:49.759Z,1.60
2022-12-27T02:06:19.682Z,1.40
2022-12-27T02:09:07.668Z,1.70
2022-12-27T02:11:51.984Z,1.50
2022-12-27T02:14:41.894Z,1.13
2022-12-27T02:17:24.947Z,1.30
2022-12-27T02:20:11.544Z,1.17
2022-12-27T02:23:28.058Z,1.20
2022-12-27T02:26:25.565Z,1.40
2022-12-27T02:29:19.284Z,1.20
2022-12-27T02:32:08.247Z,0.97
2022-12-27T02:34:51.448Z,1.50
2022-12-27T02:37:21.574Z,1.37
2022-12-27T02:39:50.938Z,1.60
2022-12-27T02:42:58.165Z,1.47
2022-12-27T02:45:49.052Z,1.50
2022-12-27T02:48:35.113Z,1.70
2022-12-27T02:51:37.172Z,1.07
2022-12-27T02:54:25.643Z,1.30
2022-12-27T02:57:10.229Z,0.90
2022-12-27T03:00:22.031Z,1.20
2022-12-27T03:03:23.834Z,1.40
2022-12-27T03:06:39.928Z,1.30
2022-12-27T03:09:55.813Z,1.00
2022-12-27T03:13:09.510Z,1.40
2022-12-27T03:15:58.015Z,1.00
2022-12-27T03:18:56.117Z,1.40
2022-12-27T03:21:55.228Z,1.00
2022-12-27T03:24:48.645Z,1.50
2022-12-27T03:27:28.521Z,1.20
2022-12-27T03:30:17.033Z,1.50
2022-12-27T03:33:13.687Z,1.50
2022-12-27T03:36:31.237Z,1.77
2022-12-27T03:39:26.162Z,1.50
2022-12-27T03:42:20.744Z,1.33
2022-12-27T03:44:47.957Z,1.50
2022-12-27T03:47:19.882Z,1.70
2022-12-27T03:50:04.936Z,1.10
2022-12-27T03:53:04.233Z,1.40
2022-12-27T03:55:33.533Z,1.23
2022-12-27T03:58:00.918Z,1.50
2022-12-27T04:00:27.908Z,1.10
2022-12-27T04:02:55.478Z,1.53
2022-12-27T04:05:23.584Z,1.63
2022-12-27T04:08:09.253Z,1.20
2022-12-27T04:10:55.612Z,1.43
2022-12-27T04:13:40.896Z,1.30
2022-12-27T04:16:26.276Z,1.33
2022-12-27T04:19:11.701Z,1.47
2022-12-27T04:21:56.980Z,1.77
2022-12-27T04:24:42.318Z,1.50
2022-12-27T04:27:29.491Z,1.47
2022-12-27T04:30:15.040Z,1.47
2022-12-27T04:33:00.411Z,1.67
2022-12-27T04:35:28.461Z,1.40
2022-12-27T04:37:56.400Z,1.70
2022-12-27T04:40:41.596Z,2.20
2022-12-27T04:43:28.225Z,1.70
2022-12-27T04:46:14.022Z,1.97
2022-12-27T04:49:02.251Z,1.30
2022-12-27T04:51:47.497Z,1.60
2022-12-27T04:54:41.012Z,1.50
2022-12-27T04:57:09.973Z,1.20
2022-12-27T04:59:55.261Z,1.63
2022-12-27T05:02:23.607Z,1.60
2022-12-27T05:04:50.923Z,2.20
2022-12-27T05:07:36.194Z,2.00
2022-12-27T05:10:24.012Z,2.70
2022-12-27T05:13:09.576Z,1.90
2022-12-27T05:15:36.598Z,1.77
2022-12-27T05:18:04.409Z,2.20
2022-12-27T05:20:34.820Z,2.20
2022-12-27T05:23:20.239Z,2.07
2022-12-27T05:25:47.692Z,2.33
2022-12-27T05:28:14.736Z,1.70
2022-12-27T05:30:45.773Z,1.60
2022-12-27T05:33:13.118Z,1.47
2022-12-27T05:35:40.507Z,1.30
2022-12-27T05:38:07.793Z,1.40
2022-12-27T05:40:36.085Z,1.30
2022-12-27T05:43:04.364Z,2.33
2022-12-27T05:45:31.363Z,1.43
2022-12-27T05:47:59.756Z,1.87
2022-12-27T05:50:27.034Z,2.00
2022-12-27T05:52:53.995Z,1.53
2022-12-27T05:55:20.925Z,1.60
2022-12-27T05:57:47.923Z,1.70
2022-12-27T06:00:15.287Z,2.30
2022-12-27T06:02:42.873Z,1.47
2022-12-27T06:05:10.928Z,1.90
2022-12-27T06:07:39.307Z,2.50
2022-12-27T06:10:08.338Z,3.30
2022-12-27T06:12:35.677Z,3.87
2022-12-27T06:15:04.238Z,4.73
2022-12-27T06:17:31.306Z,2.83
2022-12-27T06:19:58.659Z,2.40
2022-12-27T06:22:25.624Z,2.40
2022-12-27T06:24:52.568Z,3.03
2022-12-27T06:27:19.497Z,2.80
2022-12-27T06:29:46.470Z,2.50
2022-12-27T06:32:13.518Z,2.60
2022-12-27T06:34:40.452Z,2.90
2022-12-27T06:37:07.415Z,2.50
2022-12-27T06:39:35.355Z,2.80
2022-12-27T06:42:02.414Z,2.10
2022-12-27T06:44:29.419Z,2.53
2022-12-27T06:46:56.367Z,2.63
2022-12-27T06:49:23.343Z,2.70
2022-12-27T06:51:55.719Z,2.20
2022-12-27T06:54:26.450Z,2.30
2022-12-27T06:56:53.464Z,2.17
2022-12-27T06:59:20.370Z,2.13
2022-12-27T07:01:47.526Z,1.80
2022-12-27T07:04:14.905Z,2.00
2022-12-27T07:06:41.838Z,2.80
2022-12-27T07:09:08.820Z,4.50
2022-12-27T07:11:37.406Z,3.07
2022-12-27T07:14:05.042Z,3.00
2022-12-27T07:16:32.115Z,4.00
2022-12-27T07:18:59.927Z,3.30
2022-12-27T07:21:29.088Z,3.30
2022-12-27T07:23:56.872Z,2.80
2022-12-27T07:26:29.665Z,3.20
2022-12-27T07:29:02.554Z,3.20
2022-12-27T07:31:32.109Z,3.47
2022-12-27T07:34:02.375Z,3.97
2022-12-27T07:36:34.886Z,3.40
2022-12-27T07:39:02.343Z,3.17
2022-12-27T07:41:29.297Z,3.20
2022-12-27T07:43:56.223Z,2.80
2022-12-27T07:46:25.746Z,3.10
2022-12-27T07:48:58.070Z,2.47
2022-12-27T07:51:26.880Z,2.30
2022-12-27T07:53:54.565Z,2.47
2022-12-27T07:56:27.440Z,2.93
2022-12-27T07:58:57.514Z,2.20
2022-12-27T08:01:27.447Z,5.23
2022-12-27T08:03:54.800Z,2.70
2022-12-27T08:06:31.929Z,2.40
2022-12-27T08:09:02.141Z,4.30
2022-12-27T08:11:30.162Z,4.33
2022-12-27T08:13:57.298Z,3.60
2022-12-27T08:16:26.217Z,2.50
2022-12-27T08:18:53.442Z,9.60
2022-12-27T08:21:20.632Z,6.23
2022-12-27T08:23:47.552Z,5.63
2022-12-27T08:26:15.100Z,11.87
2022-12-27T08:28:42.388Z,24.20
2022-12-27T08:31:11.790Z,22.07
2022-12-27T08:33:39.229Z,16.27
2022-12-27T08:38:56.611Z,9.30
2022-12-27T08:41:24.025Z,4.20
2022-12-27T08:43:51.114Z,2.83
2022-12-27T08:46:19.492Z,3.53
2022-12-27T08:48:51.589Z,2.83
2022-12-27T08:51:31.319Z,4.10
2022-12-27T08:54:00.438Z,2.43
2022-12-27T08:56:27.457Z,2.47
2022-12-27T08:58:54.481Z,2.40
2022-12-27T09:01:21.624Z,2.40
2022-12-27T09:03:49.038Z,2.17
2022-12-27T09:06:19.899Z,2.40
2022-12-27T09:08:48.921Z,1.90
2022-12-27T09:11:28.663Z,2.40
2022-12-27T09:13:59.020Z,2.00
2022-12-27T09:16:38.164Z,1.87
2022-12-27T09:19:14.886Z,2.63
2022-12-27T09:21:44.526Z,2.00
2022-12-27T09:24:13.502Z,1.90
2022-12-27T09:26:42.366Z,2.23
2022-12-27T09:29:10.388Z,2.20
2022-12-27T09:31:37.270Z,1.70
2022-12-27T09:34:04.263Z,2.00
2022-12-27T09:36:31.146Z,2.47
2022-12-27T09:38:59.315Z,2.63
2022-12-27T09:44:56.579Z,2.50
2022-12-27T09:47:48.316Z,2.40
2022-12-27T09:50:41.194Z,2.07
2022-12-27T09:53:17.574Z,2.70
2022-12-27T09:55:58.081Z,1.93
2022-12-27T09:58:49.236Z,2.00
2022-12-27T10:01:30.859Z,2.10
2022-12-27T10:03:59.071Z,1.67
2022-12-27T10:06:31.740Z,2.33
2022-12-27T10:09:06.439Z,1.83
2022-12-27T10:11:45.379Z,1.83
2022-12-27T10:14:25.333Z,1.70
2022-12-27T10:17:31.838Z,1.70
2022-12-27T10:20:53.586Z,2.00
2022-12-27T10:23:28.509Z,1.93
2022-12-27T10:26:05.039Z,1.80
2022-12-27T10:28:43.688Z,2.17
2022-12-27T10:31:23.181Z,1.93
2022-12-27T10:33:52.294Z,2.10
2022-12-27T10:36:28.491Z,1.70
2022-12-27T10:38:57.343Z,2.00
2022-12-27T10:42:07.662Z,1.67
2022-12-27T10:44:35.070Z,1.93
2022-12-27T10:47:02.459Z,2.00
2022-12-27T10:49:34.527Z,1.63
2022-12-27T10:52:22.475Z,2.07
2022-12-27T10:54:52.318Z,2.90
2022-12-27T10:57:27.852Z,2.20
2022-12-27T11:00:16.534Z,2.33
2022-12-27T11:03:00.847Z,1.63
2022-12-27T11:05:31.336Z,2.10
2022-12-27T11:07:59.166Z,1.67
2022-12-27T11:10:33.285Z,1.90
2022-12-27T11:13:06.053Z,2.00
2022-12-27T11:15:43.319Z,2.13
2022-12-27T11:18:17.530Z,1.50
2022-12-27T11:20:51.674Z,1.80
2022-12-27T11:23:32.184Z,1.40
2022-12-27T11:26:02.892Z,2.00
2022-12-27T11:28:52.986Z,1.80
2022-12-27T11:31:41.876Z,1.20
2022-12-27T11:35:46.652Z,1.40
2022-12-27T11:38:29.781Z,2.10
2022-12-27T11:41:15.323Z,1.30
2022-12-27T11:43:58.004Z,1.40
2022-12-27T11:46:28.708Z,1.80
2022-12-27T11:48:58.769Z,2.20
2022-12-27T11:51:56.345Z,1.80
2022-12-27T11:54:51.164Z,2.27
2022-12-27T11:57:37.417Z,1.97
2022-12-27T12:00:20.012Z,1.97
2022-12-27T12:03:41.180Z,2.30
2022-12-27T12:06:41.210Z,1.87
2022-12-27T12:10:01.415Z,1.70
2022-12-27T12:13:08.193Z,2.37
2022-12-27T12:16:12.287Z,1.90
2022-12-27T12:19:00.933Z,2.03
2022-12-27T12:21:34.762Z,2.13
2022-12-27T12:24:36.028Z,2.47
2022-12-27T12:27:34.992Z,2.57
2022-12-27T12:30:41.016Z,2.00
2022-12-27T12:33:46.879Z,2.13
2022-12-27T12:36:41.945Z,1.80
2022-12-27T12:39:43.179Z,2.23
2022-12-27T12:43:04.025Z,2.37
2022-12-27T12:45:58.771Z,2.20
2022-12-27T12:48:47.909Z,1.80
2022-12-27T12:51:57.756Z,2.00
2022-12-27T12:55:19.238Z,3.70
2022-12-27T12:58:22.947Z,2.37
2022-12-27T13:00:52.931Z,2.20
2022-12-27T13:07:23.124Z,2.40
2022-12-27T13:10:33.497Z,3.60
2022-12-27T13:13:24.031Z,2.70
2022-12-27T13:16:11.163Z,3.10
2022-12-27T13:19:11.775Z,3.20
2022-12-27T13:22:43.629Z,3.53
2022-12-27T13:25:50.514Z,3.07
2022-12-27T13:28:41.067Z,2.80
2022-12-27T13:31:48.285Z,3.33
2022-12-27T13:34:33.230Z,2.77
2022-12-27T13:37:32.919Z,2.70
2022-12-27T13:40:24.755Z,2.30
2022-12-27T13:43:32.553Z,2.70
2022-12-27T13:46:11.565Z,3.17
2022-12-27T13:49:11.832Z,2.80
2022-12-27T13:52:23.535Z,2.73
2022-12-27T13:55:11.888Z,3.33
2022-12-27T13:58:11.140Z,2.90
2022-12-27T14:01:07.381Z,2.73
2022-12-27T14:03:57.529Z,2.47
2022-12-27T14:07:02.689Z,3.00
2022-12-27T14:10:25.987Z,2.20
2022-12-27T14:13:00.497Z,3.00
2022-12-27T14:15:46.648Z,2.83
2022-12-27T14:18:32.313Z,2.10
2022-12-27T14:21:20.578Z,2.70
2022-12-27T14:24:20.499Z,2.70
2022-12-27T14:27:32.142Z,2.00
2022-12-27T14:30:37.216Z,2.37
2022-12-27T14:33:30.021Z,2.07
2022-12-27T14:36:15.708Z,3.20
2022-12-27T14:39:09.843Z,2.43
2022-12-27T14:42:43.278Z,2.33
2022-12-27T14:45:25.176Z,2.27
2022-12-27T14:48:42.141Z,3.17
2022-12-27T14:52:00.022Z,2.00
2022-12-27T14:55:07.001Z,2.47
2022-12-27T14:58:16.154Z,2.57
2022-12-27T15:01:27.855Z,2.33
2022-12-27T15:04:33.640Z,3.17
2022-12-27T15:07:47.028Z,3.37
2022-12-27T15:10:55.106Z,2.57
2022-12-27T15:13:51.661Z,2.13
2022-12-27T15:16:50.979Z,1.80
2022-12-27T15:19:52.941Z,2.10
2022-12-27T15:22:42.588Z,2.00
2022-12-27T15:25:36.386Z,3.10
2022-12-27T15:28:42.836Z,6.07
2022-12-27T15:31:27.829Z,4.03
2022-12-27T15:34:20.854Z,3.40
2022-12-27T15:36:50.074Z,3.43
2022-12-27T15:39:47.118Z,3.73
2022-12-27T15:42:48.748Z,5.13
2022-12-27T15:45:59.274Z,5.07
2022-12-27T15:49:05.432Z,5.60
2022-12-27T15:52:12.008Z,4.20
2022-12-27T15:54:55.004Z,11.03
2022-12-27T15:58:01.478Z,12.10
2022-12-27T16:00:34.386Z,7.20
2022-12-27T16:03:24.315Z,4.70
2022-12-27T16:05:53.201Z,6.10
2022-12-27T16:08:39.720Z,12.53
2022-12-27T16:11:12.412Z,21.70
2022-12-27T16:13:46.759Z,32.67
2022-12-27T16:16:37.045Z,39.53
2022-12-27T16:19:28.244Z,33.40
2022-12-27T16:21:55.293Z,15.70
2022-12-27T16:24:27.146Z,11.57
2022-12-27T16:27:05.540Z,6.90
2022-12-27T16:29:35.792Z,5.03
2022-12-27T16:32:24.796Z,4.30
2022-12-27T16:34:55.515Z,3.80
2022-12-27T16:37:31.200Z,3.60
2022-12-27T16:40:18.457Z,3.80
2022-12-27T16:42:54.091Z,3.40
2022-12-27T16:45:39.275Z,3.53
2022-12-27T16:48:34.413Z,3.40
2022-12-27T16:51:08.250Z,3.00
2022-12-27T16:54:05.586Z,3.37
2022-12-27T16:56:36.116Z,5.67
2022-12-27T16:59:03.228Z,6.20
2022-12-27T17:01:35.776Z,4.87
2022-12-27T17:04:03.595Z,4.57
2022-12-27T17:06:32.356Z,4.87
2022-12-27T17:09:09.446Z,3.90
2022-12-27T17:12:05.992Z,2.43
2022-12-27T17:14:37.821Z,3.43
2022-12-27T17:17:25.237Z,3.33
2022-12-27T17:20:06.393Z,2.40
2022-12-27T17:22:35.902Z,2.80
2022-12-27T17:25:04.232Z,3.10
2022-12-27T17:28:06.169Z,3.50
2022-12-27T17:31:03.301Z,4.10
2022-12-27T17:34:11.439Z,3.43
2022-12-27T17:36:53.288Z,3.10
2022-12-27T17:39:42.001Z,3.60
2022-12-27T17:43:19.285Z,3.67
2022-12-27T17:46:37.538Z,3.80
2022-12-27T17:49:08.592Z,3.30
2022-12-27T17:52:03.072Z,3.37
2022-12-27T17:54:50.063Z,3.20
2022-12-27T17:57:37.821Z,3.27
2022-12-27T18:00:07.234Z,5.80
2022-12-27T18:02:38.160Z,5.40
2022-12-27T18:05:12.439Z,5.47
2022-12-27T18:07:40.778Z,5.20
2022-12-27T18:10:26.235Z,4.37
2022-12-27T18:12:59.334Z,5.50
2022-12-27T18:15:30.250Z,12.50
2022-12-27T18:18:04.457Z,13.83
2022-12-27T18:20:37.278Z,9.37
2022-12-27T18:23:04.295Z,7.83
2022-12-27T18:25:48.594Z,9.43
2022-12-27T18:28:33.806Z,9.97
2022-12-27T18:31:33.550Z,5.30
2022-12-27T18:34:27.911Z,5.57
2022-12-27T18:37:03.921Z,4.60
2022-12-27T18:39:54.256Z,8.40
2022-12-27T18:42:34.736Z,7.37
2022-12-27T18:45:07.287Z,8.80
2022-12-27T18:47:40.007Z,5.73
2022-12-27T18:50:24.940Z,7.10
2022-12-27T18:53:26.181Z,7.47
2022-12-27T18:56:16.359Z,8.03
2022-12-27T18:59:18.014Z,9.73
2022-12-27T19:01:47.615Z,7.97
2022-12-27T19:04:14.720Z,8.23
2022-12-27T19:07:05.858Z,8.10
2022-12-27T19:10:02.198Z,11.43
2022-12-27T19:12:39.300Z,9.83
2022-12-27T19:15:42.532Z,9.00
2022-12-27T19:18:30.057Z,8.27
2022-12-27T19:21:03.814Z,9.33
2022-12-27T19:23:37.363Z,8.40
2022-12-27T19:26:30.593Z,8.10
2022-12-27T19:29:22.879Z,7.67
2022-12-27T19:32:05.878Z,6.63
2022-12-27T19:34:54.716Z,6.37
2022-12-27T19:37:25.915Z,7.07
2022-12-27T19:39:53.566Z,6.43
2022-12-27T19:42:34.979Z,6.70
2022-12-27T19:45:02.039Z,6.07
2022-12-27T19:47:29.097Z,7.63
2022-12-27T19:49:56.139Z,8.70
2022-12-27T19:52:26.577Z,9.30
2022-12-27T19:55:12.028Z,8.57
2022-12-27T19:57:40.629Z,7.37
2022-12-27T20:00:17.182Z,7.93
2022-12-27T20:02:44.784Z,8.40
2022-12-27T20:05:12.422Z,8.60
2022-12-27T20:07:40.882Z,10.47
2022-12-27T20:10:13.129Z,9.77
2022-12-27T20:12:40.332Z,10.93
2022-12-27T20:15:07.853Z,8.43
2022-12-27T20:17:38.336Z,10.40
2022-12-27T20:20:10.443Z,10.53
2022-12-27T20:22:37.372Z,9.90
2022-12-27T20:25:04.658Z,9.10
2022-12-27T20:27:31.642Z,8.87
2022-12-27T20:30:00.224Z,9.47
2022-12-27T20:32:27.146Z,9.30
2022-12-27T20:34:54.105Z,9.13
2022-12-27T20:37:24.472Z,8.70
2022-12-27T20:39:52.145Z,9.53
2022-12-27T20:42:19.179Z,9.70
2022-12-27T20:44:46.128Z,9.53
2022-12-27T20:47:13.137Z,9.20
2022-12-27T20:49:40.122Z,9.33
2022-12-27T20:52:07.213Z,8.50
2022-12-27T20:54:34.452Z,11.47
2022-12-27T20:57:01.665Z,11.97
2022-12-27T20:59:28.671Z,11.20
2022-12-27T21:01:57.448Z,10.23
2022-12-27T21:04:27.236Z,9.20
2022-12-27T21:06:55.312Z,8.70
2022-12-27T21:09:22.229Z,10.07
2022-12-27T21:11:53.058Z,9.83
2022-12-27T21:14:20.076Z,9.40
2022-12-27T21:16:47.569Z,9.00
2022-12-27T21:19:14.935Z,9.43
2022-12-27T21:21:42.114Z,9.00
2022-12-27T21:24:12.120Z,8.97
2022-12-27T21:26:40.517Z,8.30
2022-12-27T21:29:09.473Z,9.30
2022-12-27T21:31:37.104Z,8.47
2022-12-27T21:34:05.244Z,8.80
2022-12-27T21:36:34.244Z,8.20
2022-12-27T21:39:02.231Z,8.83
2022-12-27T21:41:36.285Z,7.83
2022-12-27T21:44:03.925Z,8.27
2022-12-27T21:46:38.482Z,8.67
2022-12-27T21:49:14.680Z,7.97
2022-12-27T21:51:45.195Z,8.50
2022-12-27T21:54:13.930Z,9.30
2022-12-27T21:56:41.379Z,8.87
2022-12-27T21:59:11.132Z,10.73
2022-12-27T22:01:50.714Z,8.83
2022-12-27T22:04:20.417Z,11.13
2022-12-27T22:06:48.068Z,11.60
2022-12-27T22:09:15.569Z,10.13
2022-12-27T22:11:42.602Z,9.13
2022-12-27T22:14:09.882Z,10.70
2022-12-27T22:16:39.258Z,10.53
2022-12-27T22:19:12.306Z,12.00
2022-12-27T22:21:41.251Z,11.40
2022-12-27T22:24:12.896Z,13.60
2022-12-27T22:26:40.619Z,11.90
2022-12-27T22:29:08.061Z,12.47
2022-12-27T22:31:37.812Z,12.50
2022-12-27T22:34:06.367Z,12.13
2022-12-27T22:36:34.408Z,11.60
2022-12-27T22:39:02.109Z,10.80
2022-12-27T22:41:35.035Z,10.57
2022-12-27T22:44:07.262Z,12.93
2022-12-27T22:47:24.431Z,11.90
2022-12-27T22:49:22.756Z,12.53
2022-12-27T22:51:54.199Z,11.80
2022-12-27T22:55:02.953Z,12.60
2022-12-27T22:57:28.943Z,12.27
2022-12-27T23:00:08.438Z,12.70
2022-12-27T23:03:04.792Z,11.70
2022-12-27T23:06:53.815Z,12.80
2022-12-27T23:09:20.789Z,13.17
2022-12-27T23:11:48.019Z,11.80
2022-12-27T23:14:16.544Z,12.70
2022-12-27T23:16:49.078Z,11.93
2022-12-27T23:19:20.445Z,11.10
2022-12-27T23:21:48.640Z,11.63
2022-12-27T23:24:15.797Z,11.90
2022-12-27T23:26:43.027Z,12.40
2022-12-27T23:29:13.068Z,13.10
2022-12-27T23:31:54.515Z,10.93
2022-12-27T23:34:28.626Z,10.77
2022-12-27T23:36:58.139Z,12.03
2022-12-27T23:39:25.429Z,12.60
2022-12-27T23:41:52.359Z,12.30
2022-12-27T23:44:32.990Z,12.90
2022-12-27T23:47:05.770Z,13.40
2022-12-27T23:49:33.591Z,13.13
2022-12-27T23:52:00.675Z,12.17
2022-12-27T23:54:28.783Z,12.50
2022-12-27T23:56:55.743Z,12.10
2022-12-27T23:59:22.666Z,10.80
